ENMS  Mosjøen Airport, Kjærstad Airport

Add Bookmark

Norway

Status IATA
Operational MJF
Latitude Longitude
65° 47' 2" N 13° 12' 53" E
65.783997 13.214900
Local (DST + 2) UTC (GMT + 1)
Oct 2, 2014 08:22 Oct 2, 2014 06:22
Sunrise-Sunset Local UTC
Begin Civil Twilight 06:29 04:29
Sunrise 07:19 05:19
Sunset 06:33 16:33
End Civil Twilight 07:23 17:23

Current Weather

METAR Observed VFR
ENMS 020550Z 17003KT 9999 -SHRA FEW023 SCT045 07/05 Q1020 Thu, Oct 2, 2014 @ 05:50 UTC
(32 Minutes ago)
Visual Flight Rules
Wind Visibility Clouds Conditions
170° at 3 knots (6 kph) 10 km or more
  • Few at 2,300' AGL
  • Scattered at 4,500' AGL
  • Light Rain Showers
Temperatures Readings Precipitation
Current Temp 7°C (45°F)
Dewpoint 5°C (41°F)
Humidity 87%
Altimeter 30.12"Hg
Sea Level Pressure 1020mb
Field Elevation 229.66'
None Recorded

Additional weather within a 92.6km radius of ENMS

Map ICAO Location
ENST 38.9km W (300°)
ENBN 58.2km S (232°)
ENRA 80.9km N (037°)
ESUT 85.2km E (087°)

24 Hour Weather History

Loading
-

24 Hour Weather Graphs

Loading
-

CheckWX.com is intended as a tool to help pilots better visualize weather data. It is not intended as a substitute for an official weather briefing obtained from a Flight Service Station. CheckWX.com does not meet the FAA requirements for an official pre-flight weather briefing. Therefore, it's important that pilots still call and obtain an official FSS pre-flight weather briefing.